createdAt,value
2022-07-29T00:01:03.491Z,1.73
2022-07-29T00:03:30.732Z,1.35
2022-07-29T00:05:57.853Z,1.45
2022-07-29T00:08:24.921Z,1.70
2022-07-29T00:10:52.490Z,1.65
2022-07-29T00:13:31.756Z,2.25
2022-07-29T00:16:05.015Z,1.70
2022-07-29T00:18:32.706Z,1.80
2022-07-29T00:20:59.804Z,1.73
2022-07-29T00:23:26.960Z,2.17
2022-07-29T00:25:54.045Z,1.70
2022-07-29T00:28:21.309Z,1.98
2022-07-29T00:30:48.382Z,1.85
2022-07-29T00:33:15.494Z,1.58
2022-07-29T00:35:45.477Z,1.58
2022-07-29T00:38:16.516Z,2.20
2022-07-29T00:40:44.541Z,1.88
2022-07-29T00:43:12.391Z,1.90
2022-07-29T00:45:39.706Z,1.40
2022-07-29T00:48:07.474Z,1.90
2022-07-29T00:50:34.992Z,1.55
2022-07-29T00:53:02.215Z,1.90
2022-07-29T00:55:29.270Z,1.90
2022-07-29T00:57:56.593Z,1.65
2022-07-29T01:00:25.426Z,1.70
2022-07-29T01:02:52.716Z,1.42
2022-07-29T01:05:20.439Z,1.70
2022-07-29T01:07:48.067Z,2.05
2022-07-29T01:10:16.006Z,2.40
2022-07-29T01:12:44.737Z,2.17
2022-07-29T01:15:11.946Z,1.95
2022-07-29T01:17:57.930Z,2.22
2022-07-29T01:20:34.211Z,2.10
2022-07-29T01:23:10.623Z,2.22
2022-07-29T01:26:07.139Z,2.08
2022-07-29T01:28:35.324Z,2.65
2022-07-29T01:31:04.289Z,2.38
2022-07-29T01:33:49.625Z,2.30
2022-07-29T01:36:19.167Z,2.70
2022-07-29T01:38:48.915Z,2.70
2022-07-29T01:41:17.954Z,2.25
2022-07-29T01:43:51.633Z,2.42
2022-07-29T01:46:26.193Z,2.03
2022-07-29T01:49:02.186Z,1.90
2022-07-29T01:51:34.668Z,1.95
2022-07-29T01:54:16.314Z,1.77
2022-07-29T01:56:45.309Z,1.75
2022-07-29T01:59:13.155Z,1.70
2022-07-29T02:01:41.852Z,1.70
2022-07-29T02:04:11.460Z,2.13
2022-07-29T02:06:57.842Z,2.15
2022-07-29T02:09:26.346Z,1.85
2022-07-29T02:11:55.042Z,1.92
2022-07-29T02:14:22.855Z,1.73
2022-07-29T02:16:51.569Z,2.33
2022-07-29T02:19:20.031Z,2.10
2022-07-29T02:21:48.155Z,1.80
2022-07-29T02:24:16.229Z,1.55
2022-07-29T02:26:44.654Z,1.60
2022-07-29T02:29:13.332Z,1.38
2022-07-29T02:31:40.991Z,2.13
2022-07-29T02:34:10.509Z,2.30
2022-07-29T02:36:38.300Z,1.70
2022-07-29T02:39:05.868Z,1.60
2022-07-29T02:41:42.225Z,1.40
2022-07-29T02:44:17.499Z,0.90
2022-07-29T02:46:55.007Z,1.20
2022-07-29T02:49:33.642Z,1.35
2022-07-29T02:52:03.124Z,1.63
2022-07-29T02:54:33.194Z,2.10
2022-07-29T02:57:02.584Z,1.80
2022-07-29T02:59:32.633Z,1.80
2022-07-29T03:02:01.169Z,1.85
2022-07-29T03:04:30.044Z,1.65
2022-07-29T03:07:00.240Z,1.63
2022-07-29T03:09:28.033Z,1.90
2022-07-29T03:11:55.498Z,1.42
2022-07-29T03:14:23.906Z,1.92
2022-07-29T03:16:52.070Z,1.60
2022-07-29T03:19:19.722Z,2.10
2022-07-29T03:21:46.864Z,1.40
2022-07-29T03:24:26.361Z,2.40
2022-07-29T03:26:53.551Z,2.22
2022-07-29T03:29:20.605Z,2.10
2022-07-29T03:31:47.712Z,1.85
2022-07-29T03:34:15.941Z,1.65
2022-07-29T03:36:43.358Z,2.03
2022-07-29T03:39:10.931Z,1.63
2022-07-29T03:41:39.754Z,1.45
2022-07-29T03:44:07.657Z,1.80
2022-07-29T03:46:35.753Z,1.20
2022-07-29T03:49:04.592Z,1.90
2022-07-29T03:51:33.761Z,2.17
2022-07-29T03:54:07.663Z,1.88
2022-07-29T03:56:39.282Z,1.60
2022-07-29T03:59:06.716Z,1.98
2022-07-29T04:01:35.441Z,1.75
2022-07-29T04:04:03.541Z,1.25
2022-07-29T04:06:30.647Z,2.20
2022-07-29T04:08:57.713Z,1.98
2022-07-29T04:11:24.810Z,1.80
2022-07-29T04:13:51.914Z,2.25
2022-07-29T04:16:19.122Z,2.33
2022-07-29T04:18:46.253Z,2.40
2022-07-29T04:21:13.393Z,2.25
2022-07-29T04:23:53.178Z,2.20
2022-07-29T04:26:21.400Z,1.95
2022-07-29T04:28:48.510Z,1.98
2022-07-29T04:31:20.223Z,2.13
2022-07-29T04:33:50.987Z,2.83
2022-07-29T04:36:28.913Z,1.95
2022-07-29T04:38:56.996Z,2.03
2022-07-29T04:41:32.826Z,2.63
2022-07-29T04:44:05.789Z,2.45
2022-07-29T04:46:34.546Z,2.85
2022-07-29T04:49:01.783Z,2.40
2022-07-29T04:51:28.944Z,2.00
2022-07-29T04:53:56.017Z,2.42
2022-07-29T04:56:23.200Z,2.67
2022-07-29T04:58:50.241Z,2.60
2022-07-29T05:01:17.520Z,2.92
2022-07-29T05:03:44.954Z,2.22
2022-07-29T05:06:12.008Z,2.25
2022-07-29T05:08:39.322Z,2.60
2022-07-29T05:11:11.434Z,2.20
2022-07-29T05:13:45.844Z,2.45
2022-07-29T05:16:14.551Z,2.47
2022-07-29T05:18:41.988Z,2.80
2022-07-29T05:21:09.074Z,2.22
2022-07-29T05:23:36.545Z,2.50
2022-07-29T05:26:03.773Z,1.90
2022-07-29T05:28:30.884Z,1.48
2022-07-29T05:30:58.016Z,1.85
2022-07-29T05:33:34.924Z,2.20
2022-07-29T05:36:05.037Z,2.60
2022-07-29T05:38:32.070Z,2.85
2022-07-29T05:41:00.354Z,2.30
2022-07-29T05:43:28.394Z,2.70
2022-07-29T05:45:55.488Z,1.75
2022-07-29T05:48:22.649Z,2.10
2022-07-29T05:50:49.932Z,1.90
2022-07-29T05:53:19.421Z,2.60
2022-07-29T05:55:48.046Z,2.30
2022-07-29T05:58:15.262Z,2.25
2022-07-29T06:00:42.709Z,3.03
2022-07-29T06:03:09.776Z,2.50
2022-07-29T06:05:36.902Z,2.47
2022-07-29T06:08:06.613Z,2.88
2022-07-29T06:10:33.722Z,2.78
2022-07-29T06:13:00.766Z,2.63
2022-07-29T06:15:28.034Z,3.25
2022-07-29T06:17:59.353Z,3.65
2022-07-29T06:20:30.696Z,3.30
2022-07-29T06:22:58.338Z,2.70
2022-07-29T06:25:25.417Z,3.08
2022-07-29T06:27:53.137Z,3.00
2022-07-29T06:30:20.268Z,3.22
2022-07-29T06:32:48.005Z,3.33
2022-07-29T06:35:41.263Z,3.30
2022-07-29T06:38:02.690Z,3.40
2022-07-29T06:40:48.541Z,3.20
2022-07-29T06:43:15.696Z,3.10
2022-07-29T06:45:43.805Z,3.00
2022-07-29T06:48:14.129Z,3.10
2022-07-29T06:50:41.230Z,3.40
2022-07-29T06:53:08.321Z,3.08
2022-07-29T06:55:35.425Z,3.45
2022-07-29T06:58:02.497Z,3.22
2022-07-29T07:00:29.635Z,3.10
2022-07-29T07:02:56.777Z,2.92
2022-07-29T07:05:23.960Z,3.00
2022-07-29T07:07:51.050Z,3.35
2022-07-29T07:10:18.177Z,3.25
2022-07-29T07:12:45.292Z,3.65
2022-07-29T07:15:14.671Z,3.25
2022-07-29T07:17:41.850Z,3.42
2022-07-29T07:22:09.417Z,2.78
2022-07-29T07:24:36.523Z,2.67
2022-07-29T07:27:03.685Z,2.60
2022-07-29T07:29:30.777Z,2.38
2022-07-29T07:32:01.216Z,2.50
2022-07-29T07:34:29.776Z,3.22
2022-07-29T07:36:56.967Z,2.92
2022-07-29T07:39:24.071Z,2.63
2022-07-29T07:41:51.197Z,2.47
2022-07-29T07:44:18.534Z,3.30
2022-07-29T07:46:46.065Z,3.00
2022-07-29T07:49:13.241Z,3.05
2022-07-29T07:51:40.318Z,2.70
2022-07-29T07:54:07.433Z,3.20
2022-07-29T07:56:35.373Z,2.78
2022-07-29T07:59:02.865Z,2.55
2022-07-29T08:01:29.952Z,3.28
2022-07-29T08:04:15.602Z,3.70
2022-07-29T08:06:43.100Z,3.17
2022-07-29T08:09:28.207Z,3.25
2022-07-29T08:11:57.155Z,3.20
2022-07-29T08:14:24.240Z,3.35
2022-07-29T08:16:52.208Z,3.08
2022-07-29T08:19:19.444Z,3.05
2022-07-29T08:21:46.763Z,3.92
2022-07-29T08:24:32.967Z,3.03
2022-07-29T08:27:00.054Z,4.00
2022-07-29T08:29:27.115Z,3.30
2022-07-29T08:31:54.586Z,3.53
2022-07-29T08:34:27.840Z,3.35
2022-07-29T08:36:55.206Z,3.72
2022-07-29T08:39:22.248Z,3.55
2022-07-29T08:41:57.227Z,3.30
2022-07-29T08:44:30.400Z,3.63
2022-07-29T08:46:58.450Z,2.90
2022-07-29T08:49:25.651Z,3.60
2022-07-29T08:51:53.125Z,3.35
2022-07-29T08:54:20.532Z,3.75
2022-07-29T08:56:50.587Z,2.95
2022-07-29T08:59:21.803Z,3.50
2022-07-29T09:01:50.411Z,3.25
2022-07-29T09:04:17.902Z,3.60
2022-07-29T09:06:46.322Z,4.18
2022-07-29T09:09:14.653Z,4.32
2022-07-29T09:11:42.659Z,4.03
2022-07-29T09:14:09.987Z,4.75
2022-07-29T09:16:53.201Z,5.10
2022-07-29T09:19:22.014Z,4.75
2022-07-29T09:22:03.489Z,4.95
2022-07-29T09:24:37.386Z,4.10
2022-07-29T09:27:04.574Z,4.47
2022-07-29T09:29:36.120Z,5.07
2022-07-29T09:32:07.412Z,4.18
2022-07-29T09:34:34.533Z,4.35
2022-07-29T09:37:01.707Z,5.18
2022-07-29T09:39:46.860Z,4.10
2022-07-29T09:42:15.970Z,4.22
2022-07-29T09:44:49.056Z,4.75
2022-07-29T09:47:17.259Z,4.38
2022-07-29T09:49:55.082Z,4.65
2022-07-29T09:52:22.717Z,4.68
2022-07-29T09:54:49.848Z,5.20
2022-07-29T09:57:30.956Z,5.15
2022-07-29T10:00:06.349Z,4.70
2022-07-29T10:02:34.251Z,4.70
2022-07-29T10:05:02.406Z,4.72
2022-07-29T10:07:44.725Z,4.97
2022-07-29T10:10:12.002Z,4.97
2022-07-29T10:12:52.590Z,4.85
2022-07-29T10:15:20.302Z,4.85
2022-07-29T10:19:04.883Z,4.53
2022-07-29T10:21:36.284Z,4.13
2022-07-29T10:24:03.826Z,4.78
2022-07-29T10:26:31.998Z,4.90
2022-07-29T10:28:59.050Z,4.43
2022-07-29T10:31:35.682Z,4.75
2022-07-29T10:34:15.790Z,5.35
2022-07-29T10:37:03.673Z,4.57
2022-07-29T10:39:49.580Z,4.82
2022-07-29T10:42:33.949Z,2.40
2022-07-29T10:45:02.453Z,5.35
2022-07-29T10:47:29.707Z,4.35
2022-07-29T10:50:01.302Z,4.70
2022-07-29T10:52:47.494Z,5.45
2022-07-29T10:55:34.721Z,3.95
2022-07-29T10:58:23.455Z,4.97
2022-07-29T11:00:54.319Z,5.15
2022-07-29T11:03:49.767Z,3.45
2022-07-29T11:06:26.871Z,5.15
2022-07-29T11:09:13.881Z,4.50
2022-07-29T11:11:51.272Z,4.82
2022-07-29T11:14:19.828Z,4.72
2022-07-29T11:17:06.470Z,4.75
2022-07-29T11:19:33.927Z,5.30
2022-07-29T11:22:03.046Z,4.05
2022-07-29T11:24:35.484Z,4.32
2022-07-29T11:27:13.297Z,5.18
2022-07-29T11:29:43.092Z,5.55
2022-07-29T11:32:18.257Z,4.68
2022-07-29T11:34:51.469Z,4.70
2022-07-29T11:37:20.040Z,4.63
2022-07-29T11:40:01.564Z,5.03
2022-07-29T11:42:34.417Z,4.80
2022-07-29T11:45:40.262Z,2.63
2022-07-29T11:48:05.384Z,5.18
2022-07-29T11:50:46.318Z,5.10
2022-07-29T11:56:03.536Z,4.07
2022-07-29T11:58:31.264Z,4.70
2022-07-29T12:01:04.232Z,5.63
2022-07-29T12:03:34.977Z,5.43
2022-07-29T12:06:20.998Z,3.05
2022-07-29T12:08:48.517Z,4.47
2022-07-29T12:11:21.216Z,4.50
2022-07-29T12:13:49.298Z,4.65
2022-07-29T12:16:25.029Z,5.43
2022-07-29T12:18:59.519Z,5.60
2022-07-29T12:21:27.048Z,5.95
2022-07-29T12:24:01.891Z,5.65
2022-07-29T12:26:32.801Z,6.10
2022-07-29T12:29:02.429Z,6.03
2022-07-29T12:31:42.442Z,5.75
2022-07-29T12:34:15.164Z,4.88
2022-07-29T12:36:43.573Z,3.00
2022-07-29T12:39:11.514Z,6.13
2022-07-29T12:41:39.534Z,4.93
2022-07-29T12:44:06.655Z,5.15
2022-07-29T12:46:34.110Z,6.70
2022-07-29T12:49:03.938Z,6.20
2022-07-29T12:51:34.365Z,6.05
2022-07-29T12:54:19.505Z,4.07
2022-07-29T12:56:46.645Z,4.80
2022-07-29T12:59:18.517Z,5.22
2022-07-29T13:01:47.911Z,4.10
2022-07-29T13:04:34.055Z,3.15
2022-07-29T13:07:04.919Z,3.13
2022-07-29T13:09:58.480Z,4.90
2022-07-29T13:12:25.571Z,5.18
2022-07-29T13:14:52.618Z,2.90
2022-07-29T13:17:21.605Z,3.20
2022-07-29T13:19:52.290Z,2.25
2022-07-29T13:22:20.694Z,4.13
2022-07-29T13:24:55.723Z,4.05
2022-07-29T13:27:24.594Z,6.00
2022-07-29T13:29:55.370Z,4.85
2022-07-29T13:32:27.714Z,5.10
2022-07-29T13:34:56.600Z,2.28
2022-07-29T13:37:23.724Z,2.97
2022-07-29T13:39:51.380Z,2.40
2022-07-29T13:42:20.546Z,4.80
2022-07-29T13:44:49.533Z,4.40
2022-07-29T13:47:17.112Z,5.30
2022-07-29T13:49:44.261Z,2.80
2022-07-29T13:52:11.435Z,5.28
2022-07-29T13:54:42.399Z,1.98
2022-07-29T13:57:10.289Z,4.15
2022-07-29T13:59:37.378Z,2.97
2022-07-29T14:02:04.630Z,2.22
2022-07-29T14:04:31.789Z,3.45
2022-07-29T14:06:58.883Z,2.05
2022-07-29T14:09:30.962Z,2.05
2022-07-29T14:12:08.957Z,2.33
2022-07-29T14:14:37.389Z,2.28
2022-07-29T14:17:04.725Z,3.38
2022-07-29T14:19:33.010Z,2.05
2022-07-29T14:22:00.627Z,2.30
2022-07-29T14:24:29.318Z,3.28
2022-07-29T14:26:56.567Z,3.80
2022-07-29T14:29:23.971Z,5.82
2022-07-29T14:32:06.940Z,5.10
2022-07-29T14:34:34.388Z,5.07
2022-07-29T14:37:01.575Z,5.20
2022-07-29T14:39:31.621Z,2.20
2022-07-29T14:42:00.322Z,2.40
2022-07-29T14:44:32.039Z,4.28
2022-07-29T14:47:00.511Z,2.08
2022-07-29T14:49:30.777Z,1.90
2022-07-29T14:51:57.972Z,2.42
2022-07-29T14:54:25.277Z,2.17
2022-07-29T14:56:56.055Z,4.68
2022-07-29T14:59:23.318Z,3.13
2022-07-29T15:01:50.799Z,3.95
2022-07-29T15:04:18.010Z,2.88
2022-07-29T15:06:47.180Z,2.60
2022-07-29T15:09:14.310Z,2.13
2022-07-29T15:11:41.359Z,4.25
2022-07-29T15:14:08.525Z,2.90
2022-07-29T15:16:39.086Z,2.10
2022-07-29T15:19:09.177Z,2.70
2022-07-29T15:21:41.438Z,2.60
2022-07-29T15:24:15.409Z,2.80
2022-07-29T15:26:43.350Z,3.33
2022-07-29T15:29:10.975Z,2.70
2022-07-29T15:31:38.309Z,3.25
2022-07-29T15:34:06.561Z,2.60
2022-07-29T15:39:21.659Z,2.78
2022-07-29T15:41:48.919Z,3.40
2022-07-29T15:44:16.135Z,2.45
2022-07-29T15:47:02.644Z,3.22
2022-07-29T15:49:46.707Z,3.45
2022-07-29T15:52:16.011Z,3.10
2022-07-29T15:54:43.364Z,2.22
2022-07-29T15:57:10.694Z,2.05
2022-07-29T15:59:37.753Z,3.55
2022-07-29T16:02:07.171Z,2.15
2022-07-29T16:04:34.363Z,2.75
2022-07-29T16:07:01.692Z,2.15
2022-07-29T16:09:28.922Z,2.35
2022-07-29T16:11:56.626Z,3.33
2022-07-29T16:14:24.000Z,2.50
2022-07-29T16:16:55.976Z,2.30
2022-07-29T16:19:23.627Z,3.47
2022-07-29T16:21:50.692Z,3.65
2022-07-29T16:24:18.192Z,2.33
2022-07-29T16:26:45.324Z,3.17
2022-07-29T16:29:12.381Z,2.65
2022-07-29T16:31:39.591Z,2.35
2022-07-29T16:34:06.727Z,2.95
2022-07-29T16:36:33.784Z,2.90
2022-07-29T16:39:00.900Z,2.38
2022-07-29T16:41:29.577Z,2.85
2022-07-29T16:43:56.710Z,3.10
2022-07-29T16:46:25.089Z,2.80
2022-07-29T16:48:53.113Z,2.63
2022-07-29T16:51:20.249Z,2.80
2022-07-29T16:53:48.986Z,3.35
2022-07-29T16:56:17.762Z,3.70
2022-07-29T16:58:44.867Z,3.28
2022-07-29T17:01:12.379Z,3.10
2022-07-29T17:04:00.161Z,2.78
2022-07-29T17:06:28.662Z,2.55
2022-07-29T17:08:57.032Z,3.20
2022-07-29T17:11:53.135Z,3.25
2022-07-29T17:14:11.307Z,2.38
2022-07-29T17:16:38.442Z,2.70
2022-07-29T17:19:05.598Z,3.10
2022-07-29T17:21:32.665Z,2.65
2022-07-29T17:23:59.793Z,3.00
2022-07-29T17:26:28.140Z,2.90
2022-07-29T17:28:55.895Z,3.00
2022-07-29T17:31:23.502Z,3.10
2022-07-29T17:33:51.043Z,3.50
2022-07-29T17:36:24.153Z,3.38
2022-07-29T17:38:52.854Z,3.00
2022-07-29T17:41:20.324Z,2.95
2022-07-29T17:43:47.470Z,3.20
2022-07-29T17:46:14.904Z,2.97
2022-07-29T17:48:42.171Z,3.10
2022-07-29T17:51:09.394Z,2.72
2022-07-29T17:53:36.713Z,2.42
2022-07-29T17:56:04.304Z,3.08
2022-07-29T17:58:32.705Z,2.65
2022-07-29T18:01:01.786Z,2.40
2022-07-29T18:03:28.933Z,2.80
2022-07-29T18:05:56.134Z,3.67
2022-07-29T18:08:23.286Z,3.00
2022-07-29T18:10:50.734Z,2.55
2022-07-29T18:13:18.175Z,3.22
2022-07-29T18:15:45.956Z,3.15
2022-07-29T18:18:13.598Z,3.17
2022-07-29T18:20:41.262Z,2.60
2022-07-29T18:23:08.409Z,3.10
2022-07-29T18:25:36.662Z,3.25
2022-07-29T18:28:04.252Z,2.75
2022-07-29T18:30:33.729Z,3.22
2022-07-29T18:35:49.256Z,3.33
2022-07-29T18:38:16.443Z,3.10
2022-07-29T18:40:45.389Z,3.28
2022-07-29T18:43:12.793Z,3.13
2022-07-29T18:45:42.665Z,2.83
2022-07-29T18:48:11.933Z,2.70
2022-07-29T18:50:40.646Z,3.25
2022-07-29T18:53:07.889Z,3.05
2022-07-29T18:55:35.033Z,3.22
2022-07-29T18:58:02.154Z,3.30
2022-07-29T19:00:30.447Z,2.70
2022-07-29T19:02:57.660Z,2.70
2022-07-29T19:05:24.959Z,2.90
2022-07-29T19:07:54.503Z,3.10
2022-07-29T19:10:21.567Z,3.78
2022-07-29T19:12:50.077Z,2.80
2022-07-29T19:15:20.456Z,3.40
2022-07-29T19:17:48.486Z,3.28
2022-07-29T19:20:15.981Z,3.50
2022-07-29T19:22:43.161Z,4.30
2022-07-29T19:25:10.392Z,3.80
2022-07-29T19:27:37.567Z,3.65
2022-07-29T19:30:06.673Z,3.88
2022-07-29T19:32:33.812Z,3.75
2022-07-29T19:35:19.755Z,3.55
2022-07-29T19:37:46.806Z,4.38
2022-07-29T19:40:13.973Z,3.90
2022-07-29T19:42:41.021Z,4.20
2022-07-29T19:45:08.352Z,3.80
2022-07-29T19:47:35.502Z,4.68
2022-07-29T19:50:02.737Z,3.65
2022-07-29T19:52:29.808Z,3.63
2022-07-29T19:54:56.883Z,4.13
2022-07-29T19:57:24.144Z,6.30
2022-07-29T19:59:51.406Z,9.27
2022-07-29T20:02:18.609Z,8.30
2022-07-29T20:04:45.849Z,8.05
2022-07-29T20:07:13.479Z,6.80
2022-07-29T20:09:41.407Z,6.25
2022-07-29T20:12:11.658Z,6.22
2022-07-29T20:14:38.998Z,6.00
2022-07-29T20:17:06.114Z,7.18
2022-07-29T20:19:33.309Z,6.85
2022-07-29T20:22:00.388Z,6.63
2022-07-29T20:24:27.484Z,6.25
2022-07-29T20:26:54.557Z,5.93
2022-07-29T20:29:21.640Z,5.72
2022-07-29T20:31:51.507Z,5.70
2022-07-29T20:34:20.638Z,5.88
2022-07-29T20:36:48.773Z,4.88
2022-07-29T20:39:15.964Z,4.95
2022-07-29T20:41:43.090Z,4.80
2022-07-29T20:44:11.549Z,4.63
2022-07-29T20:46:39.376Z,4.65
2022-07-29T20:49:06.742Z,4.70
2022-07-29T20:51:43.281Z,4.90
2022-07-29T20:54:11.180Z,4.28
2022-07-29T20:56:38.412Z,4.75
2022-07-29T20:59:05.510Z,3.97
2022-07-29T21:01:32.629Z,4.35
2022-07-29T21:03:59.890Z,4.22
2022-07-29T21:06:26.951Z,4.25
2022-07-29T21:08:55.732Z,4.45
2022-07-29T21:11:44.463Z,4.25
2022-07-29T21:14:09.950Z,4.10
2022-07-29T21:16:38.567Z,4.18
2022-07-29T21:19:05.631Z,3.67
2022-07-29T21:21:32.881Z,4.40
2022-07-29T21:24:02.480Z,4.07
2022-07-29T21:26:29.550Z,4.40
2022-07-29T21:28:56.636Z,4.40
2022-07-29T21:31:23.681Z,3.85
2022-07-29T21:33:50.800Z,3.97
2022-07-29T21:39:07.029Z,3.70
2022-07-29T21:41:34.938Z,4.28
2022-07-29T21:44:01.984Z,3.60
2022-07-29T21:46:29.545Z,4.00
2022-07-29T21:48:56.628Z,4.05
2022-07-29T21:51:23.722Z,4.07
2022-07-29T21:53:53.067Z,4.30
2022-07-29T21:56:20.343Z,4.07
2022-07-29T21:58:49.697Z,4.32
2022-07-29T22:01:16.833Z,4.65
2022-07-29T22:03:43.983Z,3.90
2022-07-29T22:06:11.320Z,3.50
2022-07-29T22:08:45.659Z,3.85
2022-07-29T22:11:13.165Z,3.70
2022-07-29T22:13:40.708Z,3.65
2022-07-29T22:16:10.037Z,3.50
2022-07-29T22:18:37.120Z,4.20
2022-07-29T22:21:04.365Z,3.60
2022-07-29T22:23:33.763Z,3.83
2022-07-29T22:26:00.922Z,3.78
2022-07-29T22:28:28.109Z,4.00
2022-07-29T22:30:55.242Z,3.58
2022-07-29T22:33:22.819Z,3.72
2022-07-29T22:35:50.065Z,3.67
2022-07-29T22:38:19.381Z,3.83
2022-07-29T22:40:47.722Z,4.05
2022-07-29T22:43:15.845Z,3.90
2022-07-29T22:45:42.984Z,3.63
2022-07-29T22:48:10.484Z,4.10
2022-07-29T22:50:38.546Z,3.67
2022-07-29T22:53:05.595Z,3.83
2022-07-29T22:55:32.673Z,3.85
2022-07-29T22:57:59.813Z,4.53
2022-07-29T23:00:27.033Z,4.35
2022-07-29T23:02:54.122Z,3.78
2022-07-29T23:05:21.230Z,3.95
2022-07-29T23:07:48.306Z,3.85
2022-07-29T23:10:15.422Z,4.30
2022-07-29T23:12:42.518Z,4.38
2022-07-29T23:15:09.712Z,4.20
2022-07-29T23:17:37.045Z,4.45
2022-07-29T23:20:05.613Z,4.47
2022-07-29T23:22:32.686Z,3.97
2022-07-29T23:24:59.776Z,4.03
2022-07-29T23:27:26.854Z,4.30
2022-07-29T23:29:53.953Z,3.67
2022-07-29T23:32:21.028Z,4.60
2022-07-29T23:34:48.109Z,4.20
2022-07-29T23:37:15.204Z,4.45
2022-07-29T23:39:42.232Z,4.80
2022-07-29T23:42:09.980Z,3.95
2022-07-29T23:44:37.057Z,4.18
2022-07-29T23:47:04.461Z,4.03
2022-07-29T23:49:31.759Z,4.30
2022-07-29T23:51:58.882Z,4.00
2022-07-29T23:54:25.945Z,4.82
2022-07-29T23:56:53.046Z,4.65
2022-07-29T23:59:20.091Z,4.40
